createdAt,value
2022-09-03T00:00:28.208Z,2.10
2022-09-03T00:03:01.758Z,2.20
2022-09-03T00:05:38.498Z,1.73
2022-09-03T00:08:11.862Z,6.10
2022-09-03T00:10:46.935Z,4.10
2022-09-03T00:13:18.522Z,4.00
2022-09-03T00:15:46.824Z,3.10
2022-09-03T00:18:17.689Z,3.73
2022-09-03T00:20:52.894Z,2.43
2022-09-03T00:23:23.778Z,2.23
2022-09-03T00:25:55.807Z,2.40
2022-09-03T00:28:29.997Z,2.47
2022-09-03T00:31:06.814Z,1.87
2022-09-03T00:33:35.504Z,2.40
2022-09-03T00:36:12.438Z,5.83
2022-09-03T00:38:41.073Z,8.77
2022-09-03T00:41:11.642Z,6.30
2022-09-03T00:43:52.980Z,4.30
2022-09-03T00:46:26.152Z,2.73
2022-09-03T00:49:10.967Z,2.43
2022-09-03T00:51:44.893Z,2.40
2022-09-03T00:54:19.776Z,1.93
2022-09-03T00:56:52.480Z,6.20
2022-09-03T00:59:32.344Z,10.30
2022-09-03T01:02:09.414Z,5.43
2022-09-03T01:04:45.284Z,3.90
2022-09-03T01:07:23.983Z,2.90
2022-09-03T01:09:56.612Z,2.93
2022-09-03T01:12:32.803Z,2.30
2022-09-03T01:15:08.874Z,1.70
2022-09-03T01:17:45.395Z,2.13
2022-09-03T01:20:29.843Z,2.23
2022-09-03T01:23:30.549Z,2.07
2022-09-03T01:26:08.640Z,2.53
2022-09-03T01:28:49.014Z,2.53
2022-09-03T01:31:24.373Z,2.00
2022-09-03T01:33:58.067Z,2.73
2022-09-03T01:36:33.964Z,3.93
2022-09-03T01:39:04.804Z,4.37
2022-09-03T01:42:00.374Z,3.23
2022-09-03T01:44:39.531Z,2.97
2022-09-03T01:47:15.053Z,2.80
2022-09-03T01:49:50.089Z,3.33
2022-09-03T01:52:24.576Z,9.40
2022-09-03T01:55:02.434Z,5.20
2022-09-03T01:57:49.759Z,3.70
2022-09-03T02:00:20.764Z,3.73
2022-09-03T02:02:51.305Z,1.87
2022-09-03T02:05:24.918Z,2.57
2022-09-03T02:07:58.110Z,2.67
2022-09-03T02:10:31.686Z,2.00
2022-09-03T02:13:02.003Z,2.33
2022-09-03T02:15:34.719Z,2.20
2022-09-03T02:18:04.379Z,2.23
2022-09-03T02:20:32.734Z,2.83
2022-09-03T02:23:00.966Z,2.90
2022-09-03T02:25:32.988Z,2.70
2022-09-03T02:28:01.325Z,2.97
2022-09-03T02:30:29.820Z,2.47
2022-09-03T02:33:00.220Z,2.23
2022-09-03T02:35:28.802Z,2.80
2022-09-03T02:37:57.067Z,2.77
2022-09-03T02:40:25.567Z,2.20
2022-09-03T02:42:53.974Z,2.60
2022-09-03T02:45:26.288Z,2.33
2022-09-03T02:47:57.554Z,2.30
2022-09-03T02:50:28.125Z,2.27
2022-09-03T02:52:56.371Z,2.50
2022-09-03T02:55:24.543Z,2.37
2022-09-03T02:57:54.694Z,1.70
2022-09-03T03:00:23.007Z,2.17
2022-09-03T03:02:52.526Z,2.70
2022-09-03T03:05:28.049Z,3.97
2022-09-03T03:07:56.239Z,4.70
2022-09-03T03:10:26.894Z,3.70
2022-09-03T03:12:55.067Z,3.67
2022-09-03T03:15:23.339Z,3.33
2022-09-03T03:17:51.589Z,2.83
2022-09-03T03:20:19.686Z,2.33
2022-09-03T03:22:49.301Z,3.30
2022-09-03T03:25:17.563Z,4.13
2022-09-03T03:27:46.856Z,3.43
2022-09-03T03:30:15.716Z,3.90
2022-09-03T03:32:43.856Z,4.30
2022-09-03T03:35:11.995Z,3.50
2022-09-03T03:37:40.162Z,3.37
2022-09-03T03:40:11.006Z,2.63
2022-09-03T03:42:39.260Z,2.73
2022-09-03T03:45:08.070Z,2.70
2022-09-03T03:47:36.252Z,2.63
2022-09-03T03:50:04.671Z,2.40
2022-09-03T03:52:32.874Z,2.63
2022-09-03T03:55:01.069Z,2.23
2022-09-03T03:57:32.312Z,2.47
2022-09-03T04:00:00.438Z,2.20
2022-09-03T04:02:28.814Z,2.20
2022-09-03T04:04:57.307Z,1.57
2022-09-03T04:07:27.215Z,2.60
2022-09-03T04:09:55.483Z,2.00
2022-09-03T04:12:23.770Z,2.40
2022-09-03T04:14:53.340Z,3.23
2022-09-03T04:17:25.099Z,3.93
2022-09-03T04:19:53.862Z,3.50
2022-09-03T04:22:22.018Z,2.93
2022-09-03T04:24:50.276Z,4.93
2022-09-03T04:27:18.462Z,5.47
2022-09-03T04:29:46.698Z,5.77
2022-09-03T04:32:33.665Z,5.57
2022-09-03T04:35:01.912Z,4.80
2022-09-03T04:37:30.390Z,4.23
2022-09-03T04:39:59.245Z,2.87
2022-09-03T04:42:27.440Z,2.73
2022-09-03T04:44:56.075Z,3.13
2022-09-03T04:47:25.693Z,2.57
2022-09-03T04:49:54.461Z,2.70
2022-09-03T04:52:22.696Z,2.53
2022-09-03T04:54:50.916Z,2.70
2022-09-03T04:57:19.160Z,3.20
2022-09-03T04:59:47.485Z,3.10
2022-09-03T05:02:16.617Z,2.33
2022-09-03T05:04:47.299Z,2.00
2022-09-03T05:07:15.526Z,2.60
2022-09-03T05:09:43.771Z,2.20
2022-09-03T05:12:13.371Z,1.80
2022-09-03T05:14:41.591Z,2.30
2022-09-03T05:17:09.758Z,2.47
2022-09-03T05:19:51.890Z,2.63
2022-09-03T05:22:38.765Z,2.23
2022-09-03T05:25:07.997Z,2.10
2022-09-03T05:27:36.257Z,2.17
2022-09-03T05:30:05.035Z,2.17
2022-09-03T05:32:33.463Z,2.50
2022-09-03T05:35:03.010Z,2.20
2022-09-03T05:37:31.434Z,2.10
2022-09-03T05:39:59.599Z,2.30
2022-09-03T05:42:28.432Z,2.00
2022-09-03T05:44:57.575Z,2.00
2022-09-03T05:47:26.055Z,2.23
2022-09-03T05:49:54.288Z,2.97
2022-09-03T05:52:23.899Z,1.80
2022-09-03T05:54:52.091Z,2.10
2022-09-03T05:57:20.617Z,1.73
2022-09-03T05:59:48.833Z,2.17
2022-09-03T06:02:19.764Z,2.57
2022-09-03T06:04:49.168Z,2.27
2022-09-03T06:07:17.366Z,2.57
2022-09-03T06:09:46.927Z,2.30
2022-09-03T06:12:15.109Z,3.20
2022-09-03T06:14:43.591Z,3.83
2022-09-03T06:17:13.033Z,4.40
2022-09-03T06:19:41.232Z,3.67
2022-09-03T06:22:09.367Z,3.60
2022-09-03T06:24:37.659Z,4.03
2022-09-03T06:27:08.432Z,3.00
2022-09-03T06:29:37.078Z,2.77
2022-09-03T06:32:05.526Z,3.30
2022-09-03T06:34:33.776Z,3.00
2022-09-03T06:37:02.101Z,6.10
2022-09-03T06:39:30.837Z,4.30
2022-09-03T06:41:59.174Z,4.00
2022-09-03T06:44:28.929Z,4.70
2022-09-03T06:47:00.460Z,2.50
2022-09-03T06:49:28.557Z,2.77
2022-09-03T06:51:56.898Z,3.03
2022-09-03T06:54:25.278Z,3.47
2022-09-03T06:56:53.441Z,2.77
2022-09-03T06:59:21.527Z,2.97
2022-09-03T07:02:02.648Z,2.83
2022-09-03T07:04:49.949Z,2.30
2022-09-03T07:07:18.875Z,2.13
2022-09-03T07:09:48.441Z,3.30
2022-09-03T07:12:18.358Z,2.80
2022-09-03T07:14:48.376Z,2.57
2022-09-03T07:17:20.673Z,2.10
2022-09-03T07:19:48.746Z,2.50
2022-09-03T07:22:16.984Z,2.50
2022-09-03T07:24:47.701Z,2.63
2022-09-03T07:27:15.925Z,2.60
2022-09-03T07:29:45.105Z,2.23
2022-09-03T07:32:13.697Z,2.87
2022-09-03T07:34:43.949Z,2.60
2022-09-03T07:37:12.257Z,2.10
2022-09-03T07:39:41.466Z,2.10
2022-09-03T07:42:11.113Z,4.10
2022-09-03T07:44:39.731Z,3.00
2022-09-03T07:47:08.148Z,2.87
2022-09-03T07:49:36.734Z,2.57
2022-09-03T07:52:07.596Z,2.57
2022-09-03T07:54:41.948Z,2.77
2022-09-03T07:57:10.127Z,2.37
2022-09-03T07:59:38.367Z,3.07
2022-09-03T08:02:08.615Z,2.50
2022-09-03T08:04:38.891Z,4.50
2022-09-03T08:07:10.049Z,3.90
2022-09-03T08:09:40.103Z,2.90
2022-09-03T08:12:09.256Z,3.00
2022-09-03T08:14:37.357Z,2.83
2022-09-03T08:17:07.471Z,2.93
2022-09-03T08:19:36.169Z,2.70
2022-09-03T08:22:04.389Z,3.03
2022-09-03T08:24:35.919Z,2.27
2022-09-03T08:27:06.103Z,2.03
2022-09-03T08:29:35.954Z,3.33
2022-09-03T08:32:05.775Z,3.00
2022-09-03T08:34:34.069Z,2.30
2022-09-03T08:37:02.550Z,2.67
2022-09-03T08:39:32.219Z,2.43
2022-09-03T08:42:28.679Z,2.80
2022-09-03T08:44:58.631Z,2.80
2022-09-03T08:47:29.875Z,2.20
2022-09-03T08:50:00.025Z,2.20
2022-09-03T08:52:32.626Z,2.80
2022-09-03T08:55:19.200Z,2.20
2022-09-03T08:57:50.837Z,3.20
2022-09-03T09:00:19.418Z,2.33
2022-09-03T09:03:00.154Z,2.63
2022-09-03T09:05:38.947Z,2.50
2022-09-03T09:08:13.253Z,2.20
2022-09-03T09:10:47.016Z,2.80
2022-09-03T09:13:22.351Z,2.40
2022-09-03T09:15:57.488Z,2.77
2022-09-03T09:18:32.768Z,2.60
2022-09-03T09:21:09.978Z,3.00
2022-09-03T09:23:42.976Z,2.90
2022-09-03T09:26:15.183Z,2.37
2022-09-03T09:28:49.451Z,2.60
2022-09-03T09:31:20.353Z,2.53
2022-09-03T09:33:48.532Z,2.93
2022-09-03T09:36:19.435Z,2.60
2022-09-03T09:38:48.947Z,2.53
2022-09-03T09:41:19.459Z,2.47
2022-09-03T09:43:49.492Z,2.00
2022-09-03T09:46:23.025Z,2.60
2022-09-03T09:48:53.409Z,1.63
2022-09-03T09:51:23.724Z,2.13
2022-09-03T09:54:02.805Z,1.87
2022-09-03T09:56:31.644Z,1.80
2022-09-03T09:59:09.534Z,2.53
2022-09-03T10:01:39.874Z,2.53
2022-09-03T10:04:13.357Z,1.53
2022-09-03T10:06:58.098Z,1.87
2022-09-03T10:09:31.041Z,1.87
2022-09-03T10:12:14.754Z,1.70
2022-09-03T10:14:49.718Z,2.10
2022-09-03T10:17:26.607Z,1.73
2022-09-03T10:20:31.735Z,2.40
2022-09-03T10:23:11.011Z,1.83
2022-09-03T10:25:53.898Z,1.97
2022-09-03T10:28:25.151Z,2.27
2022-09-03T10:31:37.659Z,2.43
2022-09-03T10:34:15.175Z,2.07
2022-09-03T10:36:50.923Z,2.60
2022-09-03T10:39:23.748Z,1.87
2022-09-03T10:42:03.614Z,2.60
2022-09-03T10:44:43.923Z,2.67
2022-09-03T10:47:35.971Z,2.40
2022-09-03T10:50:16.548Z,2.20
2022-09-03T10:53:01.484Z,2.77
2022-09-03T10:55:35.999Z,2.47
2022-09-03T10:58:26.693Z,2.37
2022-09-03T11:00:58.467Z,2.87
2022-09-03T11:03:39.142Z,2.63
2022-09-03T11:06:12.577Z,2.30
2022-09-03T11:08:44.299Z,2.23
2022-09-03T11:11:16.862Z,2.00
2022-09-03T11:13:50.048Z,2.43
2022-09-03T11:16:20.914Z,2.67
2022-09-03T11:18:51.845Z,2.80
2022-09-03T11:21:23.749Z,2.37
2022-09-03T11:24:05.935Z,1.70
2022-09-03T11:26:35.628Z,2.70
2022-09-03T11:29:10.673Z,2.10
2022-09-03T11:31:58.230Z,2.10
2022-09-03T11:34:46.728Z,2.53
2022-09-03T11:37:25.362Z,2.37
2022-09-03T11:40:05.406Z,2.80
2022-09-03T11:42:38.722Z,2.13
2022-09-03T11:45:17.084Z,1.80
2022-09-03T11:47:47.589Z,2.43
2022-09-03T11:50:23.879Z,1.93
2022-09-03T11:52:57.283Z,2.67
2022-09-03T11:55:43.309Z,2.50
2022-09-03T11:58:19.033Z,2.10
2022-09-03T12:00:53.521Z,2.13
2022-09-03T12:03:28.264Z,2.60
2022-09-03T12:06:14.793Z,2.03
2022-09-03T12:08:59.494Z,2.27
2022-09-03T12:11:40.531Z,2.67
2022-09-03T12:14:20.085Z,2.40
2022-09-03T12:17:11.114Z,2.53
2022-09-03T12:19:53.620Z,2.97
2022-09-03T12:22:25.382Z,2.53
2022-09-03T12:24:56.994Z,2.50
2022-09-03T12:27:28.300Z,2.30
2022-09-03T12:30:01.071Z,2.13
2022-09-03T12:32:32.630Z,2.53
2022-09-03T12:35:13.247Z,3.30
2022-09-03T12:40:36.410Z,2.50
2022-09-03T12:43:38.607Z,2.87
2022-09-03T12:46:16.500Z,4.87
2022-09-03T12:51:55.774Z,2.97
2022-09-03T12:54:27.431Z,2.83
2022-09-03T12:57:00.627Z,2.33
2022-09-03T12:59:35.270Z,8.20
2022-09-03T13:02:12.899Z,4.00
2022-09-03T13:04:46.061Z,3.33
2022-09-03T13:07:22.228Z,3.13
2022-09-03T13:09:51.948Z,2.90
2022-09-03T13:12:33.322Z,2.77
2022-09-03T13:15:20.372Z,3.03
2022-09-03T13:18:12.416Z,2.90
2022-09-03T13:20:52.425Z,3.23
2022-09-03T13:23:35.966Z,2.53
2022-09-03T13:26:20.865Z,2.50
2022-09-03T13:29:03.424Z,3.10
2022-09-03T13:31:37.722Z,2.77
2022-09-03T13:34:10.306Z,3.10
2022-09-03T13:36:46.736Z,2.40
2022-09-03T13:39:23.556Z,3.03
2022-09-03T13:41:57.648Z,2.77
2022-09-03T13:44:38.357Z,2.47
2022-09-03T13:47:12.411Z,2.87
2022-09-03T13:50:08.296Z,3.10
2022-09-03T13:52:43.240Z,2.30
2022-09-03T13:55:16.598Z,2.87
2022-09-03T13:57:52.790Z,2.83
2022-09-03T14:00:30.233Z,2.70
2022-09-03T14:03:08.183Z,2.50
2022-09-03T14:05:46.299Z,2.87
2022-09-03T14:08:23.857Z,2.50
2022-09-03T14:11:01.805Z,2.63
2022-09-03T14:13:40.584Z,1.80
2022-09-03T14:16:18.652Z,1.90
2022-09-03T14:18:53.696Z,2.27
2022-09-03T14:21:26.807Z,2.50
2022-09-03T14:24:03.277Z,2.03
2022-09-03T14:26:41.002Z,2.53
2022-09-03T14:29:17.468Z,3.30
2022-09-03T14:32:18.167Z,2.30
2022-09-03T14:34:57.905Z,2.43
2022-09-03T14:37:40.566Z,2.50
2022-09-03T14:40:14.965Z,2.57
2022-09-03T14:42:57.511Z,2.93
2022-09-03T14:45:50.311Z,2.50
2022-09-03T14:48:50.552Z,2.53
2022-09-03T14:51:27.075Z,2.93
2022-09-03T14:54:11.685Z,3.07
2022-09-03T14:56:47.919Z,2.50
2022-09-03T14:59:38.217Z,3.27
2022-09-03T15:02:26.684Z,3.00
2022-09-03T15:05:11.748Z,2.50
2022-09-03T15:07:45.272Z,2.63
2022-09-03T15:10:22.091Z,2.33
2022-09-03T15:12:53.432Z,2.90
2022-09-03T15:15:26.333Z,3.00
2022-09-03T15:18:06.380Z,3.10
2022-09-03T15:20:57.371Z,2.67
2022-09-03T15:23:48.365Z,2.97
2022-09-03T15:26:32.486Z,2.97
2022-09-03T15:29:31.903Z,3.20
2022-09-03T15:32:08.318Z,2.47
2022-09-03T15:35:01.781Z,2.40
2022-09-03T15:37:38.358Z,2.80
2022-09-03T15:40:11.252Z,2.30
2022-09-03T15:42:44.817Z,2.93
2022-09-03T15:45:21.251Z,2.97
2022-09-03T15:47:55.644Z,2.43
2022-09-03T15:50:33.707Z,2.40
2022-09-03T15:53:15.079Z,2.53
2022-09-03T15:55:45.113Z,2.90
2022-09-03T15:58:20.829Z,2.73
2022-09-03T16:00:55.272Z,2.60
2022-09-03T16:03:34.731Z,2.70
2022-09-03T16:06:06.564Z,2.97
2022-09-03T16:08:45.139Z,2.97
2022-09-03T16:11:18.544Z,2.60
2022-09-03T16:13:57.811Z,2.53
2022-09-03T16:16:30.899Z,2.40
2022-09-03T16:19:11.225Z,2.97
2022-09-03T16:21:45.396Z,2.03
2022-09-03T16:24:20.108Z,2.23
2022-09-03T16:26:52.554Z,2.70
2022-09-03T16:29:27.903Z,3.07
2022-09-03T16:32:12.602Z,2.53
2022-09-03T16:34:50.087Z,2.90
2022-09-03T16:37:25.680Z,2.60
2022-09-03T16:40:01.898Z,2.77
2022-09-03T16:42:35.908Z,1.87
2022-09-03T16:45:16.307Z,2.47
2022-09-03T16:48:05.934Z,2.60
2022-09-03T16:50:47.217Z,3.40
2022-09-03T16:53:17.787Z,2.70
2022-09-03T16:55:59.491Z,3.30
2022-09-03T16:58:35.465Z,2.90
2022-09-03T17:01:13.663Z,3.00
2022-09-03T17:03:54.847Z,2.43
2022-09-03T17:06:33.244Z,2.57
2022-09-03T17:09:14.454Z,2.73
2022-09-03T17:11:55.575Z,3.50
2022-09-03T17:14:40.268Z,2.57
2022-09-03T17:17:17.081Z,3.30
2022-09-03T17:19:52.327Z,7.20
2022-09-03T17:22:33.205Z,5.70
2022-09-03T17:25:06.682Z,17.53
2022-09-03T17:28:57.717Z,6.07
2022-09-03T17:31:43.455Z,4.10
2022-09-03T17:34:17.630Z,3.30
2022-09-03T17:36:58.616Z,3.03
2022-09-03T17:40:07.139Z,4.00
2022-09-03T17:42:49.299Z,2.13
2022-09-03T17:45:25.015Z,3.10
2022-09-03T17:48:22.429Z,3.80
2022-09-03T17:50:55.378Z,3.10
2022-09-03T17:53:27.018Z,3.17
2022-09-03T17:55:59.104Z,3.10
2022-09-03T17:58:32.615Z,3.07
2022-09-03T18:01:08.152Z,3.33
2022-09-03T18:03:43.196Z,3.23
2022-09-03T18:06:20.421Z,3.00
2022-09-03T18:08:54.692Z,3.60
2022-09-03T18:11:32.904Z,2.97
2022-09-03T18:14:11.245Z,3.57
2022-09-03T18:16:47.698Z,3.70
2022-09-03T18:19:29.653Z,3.50
2022-09-03T18:22:18.983Z,5.47
2022-09-03T18:25:18.684Z,4.67
2022-09-03T18:28:07.823Z,4.40
2022-09-03T18:30:54.670Z,4.40
2022-09-03T18:33:44.543Z,3.33
2022-09-03T18:36:34.276Z,4.07
2022-09-03T18:39:34.794Z,4.37
2022-09-03T18:42:29.691Z,4.33
2022-09-03T18:45:23.783Z,4.73
2022-09-03T18:48:20.649Z,4.23
2022-09-03T18:51:12.487Z,4.57
2022-09-03T18:54:04.130Z,3.90
2022-09-03T18:56:55.602Z,3.97
2022-09-03T18:59:51.574Z,3.60
2022-09-03T19:02:47.002Z,3.50
2022-09-03T19:05:36.634Z,4.43
2022-09-03T19:08:29.534Z,5.07
2022-09-03T19:11:20.445Z,4.90
2022-09-03T19:14:06.460Z,4.63
2022-09-03T19:17:01.909Z,4.17
2022-09-03T19:20:00.080Z,5.30
2022-09-03T19:22:48.317Z,12.70
2022-09-03T19:25:35.661Z,9.70
2022-09-03T19:28:31.613Z,6.10
2022-09-03T19:31:42.319Z,5.30
2022-09-03T19:34:36.749Z,4.33
2022-09-03T19:37:26.125Z,4.20
2022-09-03T19:40:23.076Z,5.20
2022-09-03T19:43:17.145Z,3.93
2022-09-03T19:46:12.765Z,4.20
2022-09-03T19:49:16.728Z,3.93
2022-09-03T19:52:08.406Z,4.50
2022-09-03T19:54:54.741Z,4.20
2022-09-03T19:57:40.276Z,4.07
2022-09-03T20:00:32.575Z,3.50
2022-09-03T20:03:20.977Z,4.23
2022-09-03T20:06:10.934Z,3.63
2022-09-03T20:08:57.076Z,5.53
2022-09-03T20:11:27.772Z,4.10
2022-09-03T20:14:15.325Z,4.60
2022-09-03T20:16:53.145Z,5.50
2022-09-03T20:19:30.336Z,4.70
2022-09-03T20:22:03.006Z,5.70
2022-09-03T20:24:40.279Z,6.07
2022-09-03T20:27:17.311Z,7.60
2022-09-03T20:29:57.038Z,7.60
2022-09-03T20:33:00.701Z,5.97
2022-09-03T20:35:39.137Z,5.27
2022-09-03T20:38:19.968Z,5.40
2022-09-03T20:40:55.605Z,5.87
2022-09-03T20:43:40.329Z,5.53
2022-09-03T20:46:32.346Z,4.60
2022-09-03T20:49:07.777Z,4.77
2022-09-03T20:51:39.825Z,3.73
2022-09-03T20:54:17.123Z,3.83
2022-09-03T20:56:59.332Z,3.80
2022-09-03T20:59:35.118Z,4.07
2022-09-03T21:02:11.486Z,3.43
2022-09-03T21:04:52.125Z,3.87
2022-09-03T21:07:26.040Z,4.83
2022-09-03T21:10:00.897Z,4.10
2022-09-03T21:12:36.844Z,5.50
2022-09-03T21:15:10.605Z,4.00
2022-09-03T21:17:47.367Z,5.20
2022-09-03T21:20:23.575Z,4.97
2022-09-03T21:23:02.264Z,6.97
2022-09-03T21:25:34.719Z,6.13
2022-09-03T21:28:06.395Z,4.93
2022-09-03T21:30:38.210Z,5.13
2022-09-03T21:33:10.204Z,4.90
2022-09-03T21:35:43.929Z,5.07
2022-09-03T21:38:15.645Z,5.13
2022-09-03T21:40:49.015Z,4.57
2022-09-03T21:43:19.289Z,3.90
2022-09-03T21:45:53.392Z,4.67
2022-09-03T21:48:24.380Z,4.87
2022-09-03T21:50:56.680Z,4.30
2022-09-03T21:53:28.691Z,4.30
2022-09-03T21:56:26.954Z,4.87
2022-09-03T21:59:09.212Z,3.77
2022-09-03T22:01:48.105Z,5.80
2022-09-03T22:04:16.520Z,3.70
2022-09-03T22:06:51.269Z,5.07
2022-09-03T22:09:24.708Z,5.17
2022-09-03T22:12:01.792Z,4.20
2022-09-03T22:14:35.094Z,4.20
2022-09-03T22:17:08.961Z,3.83
2022-09-03T22:19:38.971Z,8.40
2022-09-03T22:22:13.977Z,5.10
2022-09-03T22:24:45.900Z,4.53
2022-09-03T22:27:19.588Z,4.40
2022-09-03T22:29:54.625Z,4.17
2022-09-03T22:32:33.828Z,4.00
2022-09-03T22:35:11.020Z,4.33
2022-09-03T22:37:54.386Z,3.97
2022-09-03T22:40:26.660Z,4.13
2022-09-03T22:43:03.250Z,4.57
2022-09-03T22:45:44.184Z,3.67
2022-09-03T22:48:22.477Z,3.80
2022-09-03T22:50:55.455Z,4.47
2022-09-03T22:53:35.923Z,3.80
2022-09-03T22:56:09.163Z,4.50
2022-09-03T22:58:42.773Z,3.53
2022-09-03T23:01:16.987Z,3.60
2022-09-03T23:03:52.319Z,4.33
2022-09-03T23:06:25.665Z,3.40
2022-09-03T23:08:58.487Z,3.80
2022-09-03T23:11:28.321Z,4.27
2022-09-03T23:14:01.874Z,3.63
2022-09-03T23:16:37.868Z,3.90
2022-09-03T23:21:52.317Z,3.40
2022-09-03T23:24:28.640Z,3.60
2022-09-03T23:26:56.964Z,2.90
2022-09-03T23:29:29.163Z,3.30
2022-09-03T23:31:58.353Z,2.23
2022-09-03T23:34:26.976Z,3.93
2022-09-03T23:37:32.066Z,3.10
2022-09-03T23:40:12.885Z,3.20
2022-09-03T23:42:52.135Z,3.27
2022-09-03T23:45:26.030Z,2.97
2022-09-03T23:47:59.112Z,3.40
2022-09-03T23:50:33.160Z,3.80
2022-09-03T23:53:10.863Z,3.90
2022-09-03T23:55:50.172Z,3.37
2022-09-03T23:58:30.830Z,3.10
